sensor_id;sensor_type;location;lat;lon;timestamp;temperature;humidity
1175;DHT22;576;48.418;10.074;2022-10-16T00:01:07;23.90;69.80
1175;DHT22;576;48.418;10.074;2022-10-16T00:03:35;23.80;69.80
1175;DHT22;576;48.418;10.074;2022-10-16T00:06:04;23.80;69.80
1175;DHT22;576;48.418;10.074;2022-10-16T00:08:34;23.90;69.80
1175;DHT22;576;48.418;10.074;2022-10-16T00:11:05;23.80;69.80
1175;DHT22;576;48.418;10.074;2022-10-16T00:13:36;23.80;69.80
1175;DHT22;576;48.418;10.074;2022-10-16T00:16:06;23.80;69.80
1175;DHT22;576;48.418;10.074;2022-10-16T00:18:35;23.80;69.80
1175;DHT22;576;48.418;10.074;2022-10-16T00:21:04;23.80;69.80
1175;DHT22;576;48.418;10.074;2022-10-16T00:23:33;23.80;69.80
1175;DHT22;576;48.418;10.074;2022-10-16T00:26:03;23.80;69.80
1175;DHT22;576;48.418;10.074;2022-10-16T00:28:31;23.80;69.80
1175;DHT22;576;48.418;10.074;2022-10-16T00:31:03;23.80;69.80
1175;DHT22;576;48.418;10.074;2022-10-16T00:33:33;23.80;69.80
1175;DHT22;576;48.418;10.074;2022-10-16T00:36:02;23.80;69.80
1175;DHT22;576;48.418;10.074;2022-10-16T00:38:31;23.80;69.80
1175;DHT22;576;48.418;10.074;2022-10-16T00:40:59;23.80;69.80
1175;DHT22;576;48.418;10.074;2022-10-16T00:43:36;23.80;69.80
1175;DHT22;576;48.418;10.074;2022-10-16T00:46:10;23.80;69.70
1175;DHT22;576;48.418;10.074;2022-10-16T00:48:43;23.80;69.70
1175;DHT22;576;48.418;10.074;2022-10-16T00:51:14;23.80;69.70
1175;DHT22;576;48.418;10.074;2022-10-16T00:53:42;23.80;69.70
1175;DHT22;576;48.418;10.074;2022-10-16T00:56:11;23.80;69.70
1175;DHT22;576;48.418;10.074;2022-10-16T00:58:39;23.80;69.70
1175;DHT22;576;48.418;10.074;2022-10-16T01:01:07;23.80;69.70
1175;DHT22;576;48.418;10.074;2022-10-16T01:03:37;23.80;69.80
1175;DHT22;576;48.418;10.074;2022-10-16T01:06:16;23.80;69.80
1175;DHT22;576;48.418;10.074;2022-10-16T01:09:02;23.80;69.70
1175;DHT22;576;48.418;10.074;2022-10-16T01:11:37;23.80;69.80
1175;DHT22;576;48.418;10.074;2022-10-16T01:14:13;23.80;69.80
1175;DHT22;576;48.418;10.074;2022-10-16T01:16:47;23.80;69.80
1175;DHT22;576;48.418;10.074;2022-10-16T01:19:20;23.80;69.80
1175;DHT22;576;48.418;10.074;2022-10-16T01:21:56;23.80;69.80
1175;DHT22;576;48.418;10.074;2022-10-16T01:24:32;23.80;69.80
1175;DHT22;576;48.418;10.074;2022-10-16T01:27:13;23.80;69.80
1175;DHT22;576;48.418;10.074;2022-10-16T01:29:50;23.70;69.70
1175;DHT22;576;48.418;10.074;2022-10-16T01:32:30;23.70;69.70
1175;DHT22;576;48.418;10.074;2022-10-16T01:35:03;23.70;69.70
1175;DHT22;576;48.418;10.074;2022-10-16T01:37:36;23.70;69.70
1175;DHT22;576;48.418;10.074;2022-10-16T01:40:10;23.70;69.70
1175;DHT22;576;48.418;10.074;2022-10-16T01:42:44;23.70;69.60
1175;DHT22;576;48.418;10.074;2022-10-16T01:45:15;23.70;69.60
1175;DHT22;576;48.418;10.074;2022-10-16T01:47:47;23.70;69.60
1175;DHT22;576;48.418;10.074;2022-10-16T01:50:18;23.70;69.60
1175;DHT22;576;48.418;10.074;2022-10-16T01:52:51;23.70;69.60
1175;DHT22;576;48.418;10.074;2022-10-16T01:55:22;23.70;69.60
1175;DHT22;576;48.418;10.074;2022-10-16T01:57:55;23.70;69.60
1175;DHT22;576;48.418;10.074;2022-10-16T02:00:25;23.70;69.60
1175;DHT22;576;48.418;10.074;2022-10-16T02:02:55;23.70;69.60
1175;DHT22;576;48.418;10.074;2022-10-16T02:05:27;23.70;69.60
1175;DHT22;576;48.418;10.074;2022-10-16T02:07:56;23.70;69.50
1175;DHT22;576;48.418;10.074;2022-10-16T02:10:29;23.70;69.50
1175;DHT22;576;48.418;10.074;2022-10-16T02:13:03;23.70;69.50
1175;DHT22;576;48.418;10.074;2022-10-16T02:15:33;23.70;69.50
1175;DHT22;576;48.418;10.074;2022-10-16T02:18:01;23.70;69.50
1175;DHT22;576;48.418;10.074;2022-10-16T02:20:34;23.70;69.50
1175;DHT22;576;48.418;10.074;2022-10-16T02:23:05;23.70;69.50
1175;DHT22;576;48.418;10.074;2022-10-16T02:25:37;23.70;69.50
1175;DHT22;576;48.418;10.074;2022-10-16T02:28:12;23.70;69.50
1175;DHT22;576;48.418;10.074;2022-10-16T02:30:45;23.70;69.40
1175;DHT22;576;48.418;10.074;2022-10-16T02:33:16;23.70;69.40
1175;DHT22;576;48.418;10.074;2022-10-16T02:35:46;23.70;69.40
1175;DHT22;576;48.418;10.074;2022-10-16T02:38:16;23.70;69.40
1175;DHT22;576;48.418;10.074;2022-10-16T02:40:45;23.70;69.40
1175;DHT22;576;48.418;10.074;2022-10-16T02:43:15;23.70;69.40
1175;DHT22;576;48.418;10.074;2022-10-16T02:45:43;23.70;69.40
1175;DHT22;576;48.418;10.074;2022-10-16T02:48:11;23.70;69.40
1175;DHT22;576;48.418;10.074;2022-10-16T02:50:40;23.70;69.40
1175;DHT22;576;48.418;10.074;2022-10-16T02:53:08;23.70;69.40
1175;DHT22;576;48.418;10.074;2022-10-16T02:55:36;23.70;69.40
1175;DHT22;576;48.418;10.074;2022-10-16T02:58:04;23.70;69.40
1175;DHT22;576;48.418;10.074;2022-10-16T03:00:33;23.70;69.30
1175;DHT22;576;48.418;10.074;2022-10-16T03:03:02;23.70;69.30
1175;DHT22;576;48.418;10.074;2022-10-16T03:05:30;23.70;69.30
1175;DHT22;576;48.418;10.074;2022-10-16T03:07:58;23.70;69.30
1175;DHT22;576;48.418;10.074;2022-10-16T03:10:27;23.70;69.30
1175;DHT22;576;48.418;10.074;2022-10-16T03:12:55;23.70;69.30
1175;DHT22;576;48.418;10.074;2022-10-16T03:15:23;23.70;69.30
1175;DHT22;576;48.418;10.074;2022-10-16T03:17:54;23.70;69.30
1175;DHT22;576;48.418;10.074;2022-10-16T03:20:22;23.70;69.30
1175;DHT22;576;48.418;10.074;2022-10-16T03:22:50;23.60;69.30
1175;DHT22;576;48.418;10.074;2022-10-16T03:25:18;23.60;69.30
1175;DHT22;576;48.418;10.074;2022-10-16T03:27:46;23.60;69.30
1175;DHT22;576;48.418;10.074;2022-10-16T03:30:14;23.70;69.30
1175;DHT22;576;48.418;10.074;2022-10-16T03:32:44;23.60;69.30
1175;DHT22;576;48.418;10.074;2022-10-16T03:35:13;23.60;69.30
1175;DHT22;576;48.418;10.074;2022-10-16T03:37:42;23.60;69.30
1175;DHT22;576;48.418;10.074;2022-10-16T03:40:10;23.60;69.30
1175;DHT22;576;48.418;10.074;2022-10-16T03:42:38;23.60;69.30
1175;DHT22;576;48.418;10.074;2022-10-16T03:45:07;23.60;69.30
1175;DHT22;576;48.418;10.074;2022-10-16T03:47:35;23.60;69.30
1175;DHT22;576;48.418;10.074;2022-10-16T03:50:04;23.60;69.20
1175;DHT22;576;48.418;10.074;2022-10-16T03:52:34;23.60;69.20
1175;DHT22;576;48.418;10.074;2022-10-16T03:55:03;23.60;69.20
1175;DHT22;576;48.418;10.074;2022-10-16T03:57:31;23.60;69.20
1175;DHT22;576;48.418;10.074;2022-10-16T03:59:59;23.60;69.20
1175;DHT22;576;48.418;10.074;2022-10-16T04:02:37;23.60;69.20
1175;DHT22;576;48.418;10.074;2022-10-16T04:05:06;23.60;69.20
1175;DHT22;576;48.418;10.074;2022-10-16T04:07:40;23.60;69.20
1175;DHT22;576;48.418;10.074;2022-10-16T04:10:15;23.60;69.20
1175;DHT22;576;48.418;10.074;2022-10-16T04:12:43;23.60;69.20
1175;DHT22;576;48.418;10.074;2022-10-16T04:15:11;23.60;69.20
1175;DHT22;576;48.418;10.074;2022-10-16T04:17:39;23.60;69.20
1175;DHT22;576;48.418;10.074;2022-10-16T04:20:08;23.60;69.20
1175;DHT22;576;48.418;10.074;2022-10-16T04:22:37;23.60;69.20
1175;DHT22;576;48.418;10.074;2022-10-16T04:25:06;23.60;69.20
1175;DHT22;576;48.418;10.074;2022-10-16T04:27:34;23.60;69.20
1175;DHT22;576;48.418;10.074;2022-10-16T04:30:05;23.60;69.20
1175;DHT22;576;48.418;10.074;2022-10-16T04:32:33;23.50;69.20
1175;DHT22;576;48.418;10.074;2022-10-16T04:35:01;23.60;69.10
1175;DHT22;576;48.418;10.074;2022-10-16T04:37:29;23.50;69.10
1175;DHT22;576;48.418;10.074;2022-10-16T04:39:59;23.50;69.10
1175;DHT22;576;48.418;10.074;2022-10-16T04:42:27;23.50;69.10
1175;DHT22;576;48.418;10.074;2022-10-16T04:44:55;23.50;69.10
1175;DHT22;576;48.418;10.074;2022-10-16T04:47:23;23.50;69.10
1175;DHT22;576;48.418;10.074;2022-10-16T04:49:51;23.50;69.10
1175;DHT22;576;48.418;10.074;2022-10-16T04:52:20;23.50;69.10
1175;DHT22;576;48.418;10.074;2022-10-16T04:54:48;23.50;69.10
1175;DHT22;576;48.418;10.074;2022-10-16T04:57:18;23.50;69.10
1175;DHT22;576;48.418;10.074;2022-10-16T04:59:46;23.50;69.10
1175;DHT22;576;48.418;10.074;2022-10-16T05:02:14;23.50;69.10
1175;DHT22;576;48.418;10.074;2022-10-16T05:04:42;23.50;69.00
1175;DHT22;576;48.418;10.074;2022-10-16T05:07:11;23.50;69.10
1175;DHT22;576;48.418;10.074;2022-10-16T05:09:39;23.50;69.10
1175;DHT22;576;48.418;10.074;2022-10-16T05:12:07;23.50;69.00
1175;DHT22;576;48.418;10.074;2022-10-16T05:14:36;23.50;69.00
1175;DHT22;576;48.418;10.074;2022-10-16T05:17:04;23.50;69.00
1175;DHT22;576;48.418;10.074;2022-10-16T05:19:32;23.50;69.00
1175;DHT22;576;48.418;10.074;2022-10-16T05:22:01;23.50;69.00
1175;DHT22;576;48.418;10.074;2022-10-16T05:24:29;23.50;69.00
1175;DHT22;576;48.418;10.074;2022-10-16T05:26:57;23.50;69.00
1175;DHT22;576;48.418;10.074;2022-10-16T05:29:28;23.50;69.00
1175;DHT22;576;48.418;10.074;2022-10-16T05:31:57;23.50;69.00
1175;DHT22;576;48.418;10.074;2022-10-16T05:34:25;23.50;69.00
1175;DHT22;576;48.418;10.074;2022-10-16T05:36:54;23.50;69.00
1175;DHT22;576;48.418;10.074;2022-10-16T05:39:22;23.50;69.00
1175;DHT22;576;48.418;10.074;2022-10-16T05:41:50;23.50;68.90
1175;DHT22;576;48.418;10.074;2022-10-16T05:44:19;23.50;69.00
1175;DHT22;576;48.418;10.074;2022-10-16T05:46:47;23.50;69.00
1175;DHT22;576;48.418;10.074;2022-10-16T05:49:17;23.50;69.00
1175;DHT22;576;48.418;10.074;2022-10-16T05:51:45;23.50;69.10
1175;DHT22;576;48.418;10.074;2022-10-16T05:54:13;23.50;69.10
1175;DHT22;576;48.418;10.074;2022-10-16T05:56:41;23.50;69.00
1175;DHT22;576;48.418;10.074;2022-10-16T05:59:10;23.50;69.10
1175;DHT22;576;48.418;10.074;2022-10-16T06:01:38;23.50;69.10
1175;DHT22;576;48.418;10.074;2022-10-16T06:04:07;23.50;69.10
1175;DHT22;576;48.418;10.074;2022-10-16T06:06:37;23.50;69.10
1175;DHT22;576;48.418;10.074;2022-10-16T06:09:05;23.50;69.20
1175;DHT22;576;48.418;10.074;2022-10-16T06:11:35;23.50;69.20
1175;DHT22;576;48.418;10.074;2022-10-16T06:14:04;23.50;69.30
1175;DHT22;576;48.418;10.074;2022-10-16T06:16:35;23.50;69.30
1175;DHT22;576;48.418;10.074;2022-10-16T06:19:03;23.50;69.30
1175;DHT22;576;48.418;10.074;2022-10-16T06:21:33;23.50;69.30
1175;DHT22;576;48.418;10.074;2022-10-16T06:24:03;23.50;69.40
1175;DHT22;576;48.418;10.074;2022-10-16T06:26:31;23.50;69.50
1175;DHT22;576;48.418;10.074;2022-10-16T06:29:00;23.50;69.60
1175;DHT22;576;48.418;10.074;2022-10-16T06:31:29;23.50;69.60
1175;DHT22;576;48.418;10.074;2022-10-16T06:34:00;23.50;69.60
1175;DHT22;576;48.418;10.074;2022-10-16T06:36:28;23.50;69.90
1175;DHT22;576;48.418;10.074;2022-10-16T06:38:57;23.50;69.50
1175;DHT22;576;48.418;10.074;2022-10-16T06:41:26;23.50;69.60
1175;DHT22;576;48.418;10.074;2022-10-16T06:43:55;23.50;69.60
1175;DHT22;576;48.418;10.074;2022-10-16T06:46:24;23.50;69.50
1175;DHT22;576;48.418;10.074;2022-10-16T06:48:53;23.50;69.50
1175;DHT22;576;48.418;10.074;2022-10-16T06:51:23;23.50;69.50
1175;DHT22;576;48.418;10.074;2022-10-16T06:53:52;23.50;69.50
1175;DHT22;576;48.418;10.074;2022-10-16T06:56:32;23.50;69.50
1175;DHT22;576;48.418;10.074;2022-10-16T06:59:01;23.50;69.50
1175;DHT22;576;48.418;10.074;2022-10-16T07:01:30;23.50;69.50
1175;DHT22;576;48.418;10.074;2022-10-16T07:03:58;23.50;69.50
1175;DHT22;576;48.418;10.074;2022-10-16T07:06:32;23.50;69.50
1175;DHT22;576;48.418;10.074;2022-10-16T07:09:03;23.50;69.40
1175;DHT22;576;48.418;10.074;2022-10-16T07:11:33;23.50;69.40
1175;DHT22;576;48.418;10.074;2022-10-16T07:14:01;23.50;69.60
1175;DHT22;576;48.418;10.074;2022-10-16T07:16:31;23.50;69.70
1175;DHT22;576;48.418;10.074;2022-10-16T07:19:00;23.50;69.90
1175;DHT22;576;48.418;10.074;2022-10-16T07:21:31;23.60;69.80
1175;DHT22;576;48.418;10.074;2022-10-16T07:24:04;23.60;69.90
1175;DHT22;576;48.418;10.074;2022-10-16T07:26:36;23.60;69.90
1175;DHT22;576;48.418;10.074;2022-10-16T07:29:07;23.60;69.90
1175;DHT22;576;48.418;10.074;2022-10-16T07:31:36;23.70;69.90
1175;DHT22;576;48.418;10.074;2022-10-16T07:34:05;23.70;69.80
1175;DHT22;576;48.418;10.074;2022-10-16T07:36:33;23.70;69.90
1175;DHT22;576;48.418;10.074;2022-10-16T07:39:02;23.70;69.90
1175;DHT22;576;48.418;10.074;2022-10-16T07:41:30;23.70;69.90
1175;DHT22;576;48.418;10.074;2022-10-16T07:44:00;23.70;70.00
1175;DHT22;576;48.418;10.074;2022-10-16T07:46:29;23.80;69.80
1175;DHT22;576;48.418;10.074;2022-10-16T07:48:57;23.80;69.80
1175;DHT22;576;48.418;10.074;2022-10-16T07:51:26;23.80;69.80
1175;DHT22;576;48.418;10.074;2022-10-16T07:53:54;23.80;69.60
1175;DHT22;576;48.418;10.074;2022-10-16T07:56:23;23.80;69.50
1175;DHT22;576;48.418;10.074;2022-10-16T07:58:51;23.80;69.40
1175;DHT22;576;48.418;10.074;2022-10-16T08:01:21;23.80;69.50
1175;DHT22;576;48.418;10.074;2022-10-16T08:03:50;23.80;69.40
1175;DHT22;576;48.418;10.074;2022-10-16T08:06:20;23.80;69.30
1175;DHT22;576;48.418;10.074;2022-10-16T08:08:55;23.80;69.30
1175;DHT22;576;48.418;10.074;2022-10-16T08:11:23;23.80;69.20
1175;DHT22;576;48.418;10.074;2022-10-16T08:13:52;23.80;69.20
1175;DHT22;576;48.418;10.074;2022-10-16T08:16:22;23.80;69.20
1175;DHT22;576;48.418;10.074;2022-10-16T08:18:50;23.80;69.20
1175;DHT22;576;48.418;10.074;2022-10-16T08:21:20;23.80;69.10
1175;DHT22;576;48.418;10.074;2022-10-16T08:23:50;23.80;69.10
1175;DHT22;576;48.418;10.074;2022-10-16T08:26:25;23.80;69.20
1175;DHT22;576;48.418;10.074;2022-10-16T08:28:54;23.80;69.20
1175;DHT22;576;48.418;10.074;2022-10-16T08:31:24;23.80;69.20
1175;DHT22;576;48.418;10.074;2022-10-16T08:33:56;23.80;69.20
1175;DHT22;576;48.418;10.074;2022-10-16T08:36:24;23.80;69.10
1175;DHT22;576;48.418;10.074;2022-10-16T08:38:52;23.80;69.30
1175;DHT22;576;48.418;10.074;2022-10-16T08:41:59;23.80;69.20
1175;DHT22;576;48.418;10.074;2022-10-16T08:44:42;23.80;69.30
1175;DHT22;576;48.418;10.074;2022-10-16T08:47:19;23.80;69.40
1175;DHT22;576;48.418;10.074;2022-10-16T08:49:55;23.80;69.40
1175;DHT22;576;48.418;10.074;2022-10-16T08:52:28;23.80;69.50
1175;DHT22;576;48.418;10.074;2022-10-16T08:54:57;23.80;69.50
1175;DHT22;576;48.418;10.074;2022-10-16T08:57:26;23.80;69.40
1175;DHT22;576;48.418;10.074;2022-10-16T08:59:57;23.80;69.50
1175;DHT22;576;48.418;10.074;2022-10-16T09:02:32;23.70;69.40
1175;DHT22;576;48.418;10.074;2022-10-16T09:05:14;23.70;69.40
1175;DHT22;576;48.418;10.074;2022-10-16T09:07:50;23.70;69.40
1175;DHT22;576;48.418;10.074;2022-10-16T09:10:30;23.70;69.50
1175;DHT22;576;48.418;10.074;2022-10-16T09:13:08;23.70;69.40
1175;DHT22;576;48.418;10.074;2022-10-16T09:15:46;23.80;69.60
1175;DHT22;576;48.418;10.074;2022-10-16T09:18:21;23.70;69.40
1175;DHT22;576;48.418;10.074;2022-10-16T09:20:59;23.70;69.40
1175;DHT22;576;48.418;10.074;2022-10-16T09:23:30;23.70;69.30
1175;DHT22;576;48.418;10.074;2022-10-16T09:26:01;23.80;69.30
1175;DHT22;576;48.418;10.074;2022-10-16T09:28:30;23.80;69.30
1175;DHT22;576;48.418;10.074;2022-10-16T09:30:58;23.80;69.30
1175;DHT22;576;48.418;10.074;2022-10-16T09:33:33;23.80;69.30
1175;DHT22;576;48.418;10.074;2022-10-16T09:36:05;23.80;69.30
1175;DHT22;576;48.418;10.074;2022-10-16T09:38:35;23.80;69.30
1175;DHT22;576;48.418;10.074;2022-10-16T09:41:15;23.80;69.30
1175;DHT22;576;48.418;10.074;2022-10-16T09:43:48;23.80;69.30
1175;DHT22;576;48.418;10.074;2022-10-16T09:46:25;23.80;69.30
1175;DHT22;576;48.418;10.074;2022-10-16T09:48:57;23.80;69.20
1175;DHT22;576;48.418;10.074;2022-10-16T09:51:28;23.80;69.10
1175;DHT22;576;48.418;10.074;2022-10-16T09:53:58;23.80;69.20
1175;DHT22;576;48.418;10.074;2022-10-16T09:56:28;23.80;69.10
1175;DHT22;576;48.418;10.074;2022-10-16T09:58:58;23.90;69.20
1175;DHT22;576;48.418;10.074;2022-10-16T10:01:30;23.90;69.10
1175;DHT22;576;48.418;10.074;2022-10-16T10:04:00;23.90;69.20
1175;DHT22;576;48.418;10.074;2022-10-16T10:06:31;24.00;69.10
1175;DHT22;576;48.418;10.074;2022-10-16T10:09:05;24.00;69.00
1175;DHT22;576;48.418;10.074;2022-10-16T10:11:38;24.00;69.00
1175;DHT22;576;48.418;10.074;2022-10-16T10:14:13;24.00;68.90
1175;DHT22;576;48.418;10.074;2022-10-16T10:16:43;24.00;68.90
1175;DHT22;576;48.418;10.074;2022-10-16T10:19:16;24.00;68.90
1175;DHT22;576;48.418;10.074;2022-10-16T10:21:44;24.00;68.80
1175;DHT22;576;48.418;10.074;2022-10-16T10:24:14;24.00;68.80
1175;DHT22;576;48.418;10.074;2022-10-16T10:26:49;24.00;68.80
1175;DHT22;576;48.418;10.074;2022-10-16T10:29:31;24.00;68.80
1175;DHT22;576;48.418;10.074;2022-10-16T10:32:11;24.00;68.80
1175;DHT22;576;48.418;10.074;2022-10-16T10:35:00;24.10;68.90
1175;DHT22;576;48.418;10.074;2022-10-16T10:37:44;24.10;68.90
1175;DHT22;576;48.418;10.074;2022-10-16T10:40:24;24.10;68.90
1175;DHT22;576;48.418;10.074;2022-10-16T10:43:00;24.10;68.80
1175;DHT22;576;48.418;10.074;2022-10-16T10:45:38;24.10;68.90
1175;DHT22;576;48.418;10.074;2022-10-16T10:48:24;24.10;68.70
1175;DHT22;576;48.418;10.074;2022-10-16T10:50:59;24.10;69.10
1175;DHT22;576;48.418;10.074;2022-10-16T10:53:39;24.10;68.90
1175;DHT22;576;48.418;10.074;2022-10-16T10:56:19;24.10;68.90
1175;DHT22;576;48.418;10.074;2022-10-16T10:59:07;24.10;68.80
1175;DHT22;576;48.418;10.074;2022-10-16T11:01:42;24.10;68.70
1175;DHT22;576;48.418;10.074;2022-10-16T11:05:02;24.10;68.70
1175;DHT22;576;48.418;10.074;2022-10-16T11:07:39;24.10;68.70
1175;DHT22;576;48.418;10.074;2022-10-16T11:10:13;24.10;68.80
1175;DHT22;576;48.418;10.074;2022-10-16T11:12:45;24.10;68.80
1175;DHT22;576;48.418;10.074;2022-10-16T11:15:18;24.10;68.90
1175;DHT22;576;48.418;10.074;2022-10-16T11:17:52;24.10;68.90
1175;DHT22;576;48.418;10.074;2022-10-16T11:20:24;24.10;69.20
1175;DHT22;576;48.418;10.074;2022-10-16T11:22:58;24.10;69.20
1175;DHT22;576;48.418;10.074;2022-10-16T11:25:29;24.10;69.00
1175;DHT22;576;48.418;10.074;2022-10-16T11:28:02;24.10;68.80
1175;DHT22;576;48.418;10.074;2022-10-16T11:30:39;24.10;68.90
1175;DHT22;576;48.418;10.074;2022-10-16T11:33:20;24.10;68.90
1175;DHT22;576;48.418;10.074;2022-10-16T11:35:55;24.10;68.80
1175;DHT22;576;48.418;10.074;2022-10-16T11:38:34;24.20;68.70
1175;DHT22;576;48.418;10.074;2022-10-16T11:41:12;24.20;68.80
1175;DHT22;576;48.418;10.074;2022-10-16T11:43:48;24.20;68.80
1175;DHT22;576;48.418;10.074;2022-10-16T11:46:21;24.20;68.70
1175;DHT22;576;48.418;10.074;2022-10-16T11:48:57;24.20;68.80
1175;DHT22;576;48.418;10.074;2022-10-16T11:51:33;24.20;69.30
1175;DHT22;576;48.418;10.074;2022-10-16T11:54:14;24.30;68.90
1175;DHT22;576;48.418;10.074;2022-10-16T11:56:45;24.40;68.60
1175;DHT22;576;48.418;10.074;2022-10-16T11:59:20;24.70;67.90
1175;DHT22;576;48.418;10.074;2022-10-16T12:01:58;24.90;67.40
1175;DHT22;576;48.418;10.074;2022-10-16T12:04:36;25.10;66.90
1175;DHT22;576;48.418;10.074;2022-10-16T12:07:14;25.30;66.20
1175;DHT22;576;48.418;10.074;2022-10-16T12:09:45;25.50;66.00
1175;DHT22;576;48.418;10.074;2022-10-16T12:12:25;25.60;65.70
1175;DHT22;576;48.418;10.074;2022-10-16T12:15:01;25.70;65.50
1175;DHT22;576;48.418;10.074;2022-10-16T12:17:48;25.70;65.30
1175;DHT22;576;48.418;10.074;2022-10-16T12:20:23;25.80;65.20
1175;DHT22;576;48.418;10.074;2022-10-16T12:22:54;25.90;65.10
1175;DHT22;576;48.418;10.074;2022-10-16T12:25:26;26.00;64.80
1175;DHT22;576;48.418;10.074;2022-10-16T12:28:01;26.00;64.60
1175;DHT22;576;48.418;10.074;2022-10-16T12:30:31;26.10;64.60
1175;DHT22;576;48.418;10.074;2022-10-16T12:33:03;26.10;64.50
1175;DHT22;576;48.418;10.074;2022-10-16T12:35:34;26.10;64.50
1175;DHT22;576;48.418;10.074;2022-10-16T12:38:08;26.10;64.50
1175;DHT22;576;48.418;10.074;2022-10-16T12:40:55;26.10;64.60
1175;DHT22;576;48.418;10.074;2022-10-16T12:43:28;26.10;64.50
1175;DHT22;576;48.418;10.074;2022-10-16T12:46:05;26.10;64.40
1175;DHT22;576;48.418;10.074;2022-10-16T12:48:47;26.10;64.40
1175;DHT22;576;48.418;10.074;2022-10-16T12:51:35;26.10;64.40
1175;DHT22;576;48.418;10.074;2022-10-16T12:54:10;26.10;64.40
1175;DHT22;576;48.418;10.074;2022-10-16T12:56:50;26.10;64.60
1175;DHT22;576;48.418;10.074;2022-10-16T12:59:29;26.00;64.70
1175;DHT22;576;48.418;10.074;2022-10-16T13:02:16;26.00;64.80
1175;DHT22;576;48.418;10.074;2022-10-16T13:05:11;25.90;65.10
1175;DHT22;576;48.418;10.074;2022-10-16T13:07:51;25.90;65.10
1175;DHT22;576;48.418;10.074;2022-10-16T13:10:26;25.90;65.20
1175;DHT22;576;48.418;10.074;2022-10-16T13:13:07;25.90;65.10
1175;DHT22;576;48.418;10.074;2022-10-16T13:15:51;25.90;65.10
1175;DHT22;576;48.418;10.074;2022-10-16T13:18:26;25.90;65.20
1175;DHT22;576;48.418;10.074;2022-10-16T13:21:10;25.90;65.20
1175;DHT22;576;48.418;10.074;2022-10-16T13:23:48;25.90;65.30
1175;DHT22;576;48.418;10.074;2022-10-16T13:26:28;25.90;65.40
1175;DHT22;576;48.418;10.074;2022-10-16T13:29:00;25.80;65.40
1175;DHT22;576;48.418;10.074;2022-10-16T13:31:30;25.70;65.50
1175;DHT22;576;48.418;10.074;2022-10-16T13:33:59;25.70;65.70
1175;DHT22;576;48.418;10.074;2022-10-16T13:36:30;25.60;65.90
1175;DHT22;576;48.418;10.074;2022-10-16T13:39:12;25.60;65.90
1175;DHT22;576;48.418;10.074;2022-10-16T13:41:40;25.60;65.90
1175;DHT22;576;48.418;10.074;2022-10-16T13:44:15;25.50;66.10
1175;DHT22;576;48.418;10.074;2022-10-16T13:46:46;25.50;66.10
1175;DHT22;576;48.418;10.074;2022-10-16T13:49:16;25.60;66.10
1175;DHT22;576;48.418;10.074;2022-10-16T13:51:54;25.60;66.10
1175;DHT22;576;48.418;10.074;2022-10-16T13:54:23;25.60;66.10
1175;DHT22;576;48.418;10.074;2022-10-16T13:56:51;25.60;66.10
1175;DHT22;576;48.418;10.074;2022-10-16T13:59:37;25.60;66.10
1175;DHT22;576;48.418;10.074;2022-10-16T14:02:16;25.50;66.20
1175;DHT22;576;48.418;10.074;2022-10-16T14:04:46;25.50;66.20
1175;DHT22;576;48.418;10.074;2022-10-16T14:07:20;25.50;66.20
1175;DHT22;576;48.418;10.074;2022-10-16T14:09:50;25.50;66.30
1175;DHT22;576;48.418;10.074;2022-10-16T14:12:20;25.40;66.30
1175;DHT22;576;48.418;10.074;2022-10-16T14:14:57;25.40;66.50
1175;DHT22;576;48.418;10.074;2022-10-16T14:17:28;25.30;66.60
1175;DHT22;576;48.418;10.074;2022-10-16T14:19:58;25.30;66.60
1175;DHT22;576;48.418;10.074;2022-10-16T14:22:34;25.30;66.70
1175;DHT22;576;48.418;10.074;2022-10-16T14:25:20;25.30;66.60
1175;DHT22;576;48.418;10.074;2022-10-16T14:27:58;25.30;66.70
1175;DHT22;576;48.418;10.074;2022-10-16T14:30:35;25.30;66.70
1175;DHT22;576;48.418;10.074;2022-10-16T14:33:05;25.40;66.70
1175;DHT22;576;48.418;10.074;2022-10-16T14:35:35;25.40;66.50
1175;DHT22;576;48.418;10.074;2022-10-16T14:38:04;25.40;66.20
1175;DHT22;576;48.418;10.074;2022-10-16T14:40:35;25.50;66.10
1175;DHT22;576;48.418;10.074;2022-10-16T14:43:04;25.50;65.90
1175;DHT22;576;48.418;10.074;2022-10-16T14:45:35;25.40;65.70
1175;DHT22;576;48.418;10.074;2022-10-16T14:48:06;25.40;65.60
1175;DHT22;576;48.418;10.074;2022-10-16T14:50:45;25.40;65.40
1175;DHT22;576;48.418;10.074;2022-10-16T14:53:14;25.40;65.40
1175;DHT22;576;48.418;10.074;2022-10-16T14:55:42;25.40;65.60
1175;DHT22;576;48.418;10.074;2022-10-16T14:58:14;25.40;65.40
1175;DHT22;576;48.418;10.074;2022-10-16T15:00:44;25.30;65.60
1175;DHT22;576;48.418;10.074;2022-10-16T15:03:13;25.30;65.60
1175;DHT22;576;48.418;10.074;2022-10-16T15:05:41;25.30;65.60
1175;DHT22;576;48.418;10.074;2022-10-16T15:08:09;25.20;65.60
1175;DHT22;576;48.418;10.074;2022-10-16T15:10:40;25.20;65.70
1175;DHT22;576;48.418;10.074;2022-10-16T15:13:11;25.20;65.90
1175;DHT22;576;48.418;10.074;2022-10-16T15:15:44;25.10;66.10
1175;DHT22;576;48.418;10.074;2022-10-16T15:18:12;25.10;66.20
1175;DHT22;576;48.418;10.074;2022-10-16T15:20:48;25.10;66.30
1175;DHT22;576;48.418;10.074;2022-10-16T15:23:18;25.00;66.40
1175;DHT22;576;48.418;10.074;2022-10-16T15:25:49;25.00;66.60
1175;DHT22;576;48.418;10.074;2022-10-16T15:28:18;25.00;66.70
1175;DHT22;576;48.418;10.074;2022-10-16T15:30:49;24.90;66.70
1175;DHT22;576;48.418;10.074;2022-10-16T15:33:19;24.90;66.80
1175;DHT22;576;48.418;10.074;2022-10-16T15:35:48;24.90;66.80
1175;DHT22;576;48.418;10.074;2022-10-16T15:38:18;24.90;66.90
1175;DHT22;576;48.418;10.074;2022-10-16T15:40:47;24.90;67.00
1175;DHT22;576;48.418;10.074;2022-10-16T15:43:16;24.90;67.10
1175;DHT22;576;48.418;10.074;2022-10-16T15:45:44;24.80;67.10
1175;DHT22;576;48.418;10.074;2022-10-16T15:48:14;24.80;67.30
1175;DHT22;576;48.418;10.074;2022-10-16T15:50:42;24.80;67.30
1175;DHT22;576;48.418;10.074;2022-10-16T15:53:15;24.80;67.30
1175;DHT22;576;48.418;10.074;2022-10-16T15:55:43;24.80;67.40
1175;DHT22;576;48.418;10.074;2022-10-16T15:58:11;24.80;67.50
1175;DHT22;576;48.418;10.074;2022-10-16T16:00:39;24.80;67.60
1175;DHT22;576;48.418;10.074;2022-10-16T16:03:07;24.70;67.70
1175;DHT22;576;48.418;10.074;2022-10-16T16:05:39;24.70;67.70
1175;DHT22;576;48.418;10.074;2022-10-16T16:08:12;24.70;67.80
1175;DHT22;576;48.418;10.074;2022-10-16T16:10:40;24.70;67.90
1175;DHT22;576;48.418;10.074;2022-10-16T16:13:08;24.70;68.00
1175;DHT22;576;48.418;10.074;2022-10-16T16:15:38;24.70;68.00
1175;DHT22;576;48.418;10.074;2022-10-16T16:18:07;24.70;67.90
1175;DHT22;576;48.418;10.074;2022-10-16T16:20:36;24.70;68.00
1175;DHT22;576;48.418;10.074;2022-10-16T16:23:06;24.70;68.10
1175;DHT22;576;48.418;10.074;2022-10-16T16:25:34;24.70;68.10
1175;DHT22;576;48.418;10.074;2022-10-16T16:28:03;24.70;68.10
1175;DHT22;576;48.418;10.074;2022-10-16T16:30:31;24.60;68.10
1175;DHT22;576;48.418;10.074;2022-10-16T16:32:59;24.60;68.20